createdAt,value
2022-10-28T00:01:57.754Z,4.90
2022-10-28T00:06:57.671Z,4.50
2022-10-28T00:11:57.744Z,4.60
2022-10-28T00:16:58.581Z,5.20
2022-10-28T00:21:57.600Z,5.20
2022-10-28T00:26:57.542Z,5.20
2022-10-28T00:31:57.471Z,5.20
2022-10-28T00:36:57.421Z,4.60
2022-10-28T00:41:57.294Z,4.50
2022-10-28T00:46:57.199Z,4.90
2022-10-28T00:51:57.161Z,4.30
2022-10-28T00:56:57.182Z,4.20
2022-10-28T01:01:57.228Z,5.00
2022-10-28T01:06:57.064Z,4.60
2022-10-28T01:11:58.021Z,4.80
2022-10-28T01:16:56.955Z,4.70
2022-10-28T01:21:56.885Z,4.10
2022-10-28T01:26:56.752Z,3.70
2022-10-28T01:31:56.722Z,4.00
2022-10-28T01:36:56.671Z,3.80
2022-10-28T01:41:56.626Z,4.70
2022-10-28T01:46:56.572Z,3.70
2022-10-28T01:51:56.555Z,4.60
2022-10-28T01:56:56.442Z,4.30
2022-10-28T02:01:56.645Z,4.00
2022-10-28T02:06:56.447Z,4.70
2022-10-28T02:11:56.286Z,4.20
2022-10-28T02:16:56.220Z,3.90
2022-10-28T02:21:56.162Z,4.00
2022-10-28T02:26:56.113Z,4.70
2022-10-28T02:31:56.135Z,4.00
2022-10-28T02:36:56.081Z,4.30
2022-10-28T02:41:56.026Z,4.20
2022-10-28T02:46:57.917Z,4.50
2022-10-28T02:51:55.833Z,5.40
2022-10-28T02:56:55.798Z,4.80
2022-10-28T03:01:55.816Z,4.90
2022-10-28T03:06:55.677Z,4.30
2022-10-28T03:11:55.613Z,4.40
2022-10-28T03:16:55.594Z,4.40
2022-10-28T03:21:55.547Z,4.80
2022-10-28T03:26:55.484Z,6.10
2022-10-28T03:31:55.417Z,4.70
2022-10-28T03:36:55.368Z,4.50
2022-10-28T03:41:55.402Z,5.40
2022-10-28T03:46:55.225Z,4.20
2022-10-28T03:51:55.178Z,4.80
2022-10-28T03:56:55.096Z,4.70
2022-10-28T04:01:55.240Z,4.90
2022-10-28T04:06:55.075Z,5.30
2022-10-28T04:11:55.123Z,6.00
2022-10-28T04:16:54.980Z,4.70
2022-10-28T04:21:54.920Z,4.90
2022-10-28T04:26:54.849Z,6.70
2022-10-28T04:31:54.795Z,5.40
2022-10-28T04:36:54.679Z,5.40
2022-10-28T04:41:54.606Z,4.90
2022-10-28T04:46:54.557Z,6.00
2022-10-28T04:51:54.508Z,4.70
2022-10-28T04:56:54.474Z,5.50
2022-10-28T05:01:54.481Z,4.60
2022-10-28T05:06:54.371Z,4.90
2022-10-28T05:11:54.358Z,4.60
2022-10-28T05:16:54.241Z,4.70
2022-10-28T05:21:54.182Z,4.40
2022-10-28T05:26:54.120Z,5.10
2022-10-28T05:34:32.465Z,4.60
2022-10-28T05:39:32.296Z,4.90
2022-10-28T05:44:32.361Z,5.50
2022-10-28T05:49:32.276Z,5.40
2022-10-28T05:54:41.257Z,5.50
2022-10-28T05:59:35.961Z,5.20
2022-10-28T06:04:32.114Z,5.00
2022-10-28T06:09:32.691Z,4.90
2022-10-28T06:18:38.340Z,6.20
2022-10-28T06:26:21.352Z,5.70
2022-10-28T06:31:22.113Z,5.50
2022-10-28T06:36:20.760Z,5.60
2022-10-28T06:41:23.459Z,4.80
2022-10-28T06:46:23.279Z,5.20
2022-10-28T06:51:51.275Z,5.30
2022-10-28T06:56:23.017Z,4.50
2022-10-28T07:01:21.947Z,4.90
2022-10-28T07:06:22.169Z,5.10
2022-10-28T07:11:21.849Z,5.10
2022-10-28T07:16:22.864Z,5.10
2022-10-28T07:21:34.492Z,5.40
2022-10-28T07:26:22.636Z,5.80
2022-10-28T07:31:21.749Z,5.10
2022-10-28T07:36:30.399Z,5.50
2022-10-28T07:41:21.406Z,5.10
2022-10-28T07:46:21.378Z,4.80
2022-10-28T07:51:21.322Z,5.40
2022-10-28T07:56:21.299Z,5.40
2022-10-28T08:01:21.333Z,4.90
2022-10-28T08:06:21.158Z,5.50
2022-10-28T08:11:21.092Z,6.00
2022-10-28T08:16:21.140Z,5.00
2022-10-28T08:21:20.946Z,5.30
2022-10-28T08:26:20.899Z,5.40
2022-10-28T08:31:20.876Z,5.30
2022-10-28T08:36:20.859Z,5.50
2022-10-28T08:41:20.734Z,5.10
2022-10-28T08:46:20.688Z,4.40
2022-10-28T08:51:20.658Z,5.50
2022-10-28T08:56:20.787Z,4.70
2022-10-28T09:01:20.834Z,6.40
2022-10-28T09:06:20.475Z,4.70
2022-10-28T09:11:24.756Z,5.50
2022-10-28T09:16:21.482Z,5.90
2022-10-28T09:21:20.374Z,4.80
2022-10-28T09:26:20.261Z,4.50
2022-10-28T09:31:20.312Z,4.80
2022-10-28T09:36:20.209Z,4.50
2022-10-28T09:41:20.173Z,4.60
2022-10-28T09:46:20.155Z,5.20
2022-10-28T09:51:20.049Z,4.90
2022-10-28T09:56:20.040Z,4.40
2022-10-28T10:01:20.021Z,5.10
2022-10-28T10:06:19.869Z,4.70
2022-10-28T10:11:19.773Z,5.10
2022-10-28T10:16:19.818Z,5.20
2022-10-28T10:21:19.710Z,4.30
2022-10-28T10:26:19.623Z,4.10
2022-10-28T10:31:19.590Z,5.10
2022-10-28T10:36:19.561Z,5.70
2022-10-28T10:41:19.457Z,4.80
2022-10-28T10:46:19.379Z,4.60
2022-10-28T10:51:19.390Z,5.10
2022-10-28T10:56:19.331Z,5.20
2022-10-28T11:01:19.338Z,4.90
2022-10-28T11:06:23.483Z,4.70
2022-10-28T11:11:20.183Z,4.00
2022-10-28T11:16:19.115Z,4.80
2022-10-28T11:21:19.093Z,4.60
2022-10-28T11:26:18.972Z,5.40
2022-10-28T11:31:18.962Z,4.40
2022-10-28T11:36:18.888Z,4.50
2022-10-28T11:41:18.837Z,4.80
2022-10-28T11:46:18.760Z,4.80
2022-10-28T11:51:18.710Z,4.50
2022-10-28T11:56:18.726Z,5.90
2022-10-28T12:01:18.683Z,4.40
2022-10-28T12:06:18.573Z,5.10
2022-10-28T12:11:18.515Z,4.30
2022-10-28T12:16:18.490Z,5.00
2022-10-28T12:21:18.534Z,4.90
2022-10-28T12:26:18.351Z,5.10
2022-10-28T12:31:18.318Z,5.00
2022-10-28T12:36:18.298Z,5.20
2022-10-28T12:41:18.284Z,4.70
2022-10-28T12:46:18.117Z,4.40
2022-10-28T12:51:18.089Z,5.10
2022-10-28T12:56:18.131Z,5.00
2022-10-28T13:01:18.071Z,5.20
2022-10-28T13:06:17.997Z,4.90
2022-10-28T13:11:17.905Z,5.10
2022-10-28T13:16:17.832Z,4.80
2022-10-28T13:21:18.809Z,5.20
2022-10-28T13:26:17.751Z,6.30
2022-10-28T13:31:17.701Z,4.50
2022-10-28T13:36:27.461Z,6.10
2022-10-28T13:41:17.544Z,5.30
2022-10-28T13:46:17.533Z,4.80
2022-10-28T13:51:17.464Z,4.90
2022-10-28T13:56:17.399Z,4.60
2022-10-28T14:01:17.360Z,4.80
2022-10-28T14:06:17.340Z,5.50
2022-10-28T14:11:17.218Z,4.40
2022-10-28T14:16:17.221Z,5.90
2022-10-28T14:21:17.111Z,4.60
2022-10-28T14:26:17.064Z,4.60
2022-10-28T14:31:18.004Z,4.30
2022-10-28T14:36:16.952Z,5.30
2022-10-28T14:41:16.889Z,5.00
2022-10-28T14:46:16.973Z,5.20
2022-10-28T14:51:16.811Z,5.60
2022-10-28T14:56:16.814Z,5.00
2022-10-28T15:01:16.826Z,4.90
2022-10-28T15:06:16.671Z,4.80
2022-10-28T15:11:16.573Z,4.80
2022-10-28T15:16:16.521Z,6.10
2022-10-28T15:21:16.446Z,5.00
2022-10-28T15:26:16.403Z,4.30
2022-10-28T15:31:16.392Z,4.80
2022-10-28T15:36:18.354Z,5.40
2022-10-28T15:41:16.241Z,5.00
2022-10-28T15:46:16.204Z,5.70
2022-10-28T15:51:16.155Z,5.70
2022-10-28T15:56:16.093Z,5.30
2022-10-28T16:01:16.200Z,5.90
2022-10-28T16:06:15.955Z,5.40
2022-10-28T16:11:15.910Z,5.50
2022-10-28T16:16:15.863Z,4.80
2022-10-28T16:21:15.919Z,5.40
2022-10-28T16:26:15.853Z,4.90
2022-10-28T16:31:15.756Z,4.90
2022-10-28T16:36:15.688Z,4.70
2022-10-28T16:41:15.631Z,6.00
2022-10-28T16:46:15.574Z,4.90
2022-10-28T16:51:15.488Z,5.30
2022-10-28T16:56:16.487Z,5.90
2022-10-28T17:01:15.511Z,5.70
2022-10-28T17:06:15.336Z,6.10
2022-10-28T17:11:15.258Z,5.70
2022-10-28T17:16:15.326Z,5.50
2022-10-28T17:21:15.174Z,6.00
2022-10-28T17:26:15.149Z,5.30
2022-10-28T17:31:15.923Z,5.80
2022-10-28T17:36:14.982Z,6.90
2022-10-28T17:41:14.957Z,6.40
2022-10-28T17:46:14.903Z,5.50
2022-10-28T17:51:14.825Z,5.60
2022-10-28T17:56:14.868Z,5.70
2022-10-28T18:01:14.809Z,6.00
2022-10-28T18:06:14.662Z,6.40
2022-10-28T18:11:14.620Z,6.40
2022-10-28T18:16:14.573Z,6.60
2022-10-28T18:21:14.570Z,6.60
2022-10-28T18:26:14.457Z,6.40
2022-10-28T18:31:14.487Z,6.90
2022-10-28T18:36:14.423Z,8.30
2022-10-28T18:41:14.340Z,7.00
2022-10-28T18:46:14.273Z,7.10
2022-10-28T18:51:14.214Z,6.90
2022-10-28T18:56:14.245Z,6.90
2022-10-28T19:01:14.291Z,7.50
2022-10-28T19:06:14.008Z,7.00
2022-10-28T19:11:13.958Z,6.50
2022-10-28T19:16:13.975Z,6.70
2022-10-28T19:21:13.854Z,6.90
2022-10-28T19:26:13.795Z,7.00
2022-10-28T19:31:14.838Z,6.60
2022-10-28T19:36:15.765Z,6.20
2022-10-28T19:41:13.722Z,7.90
2022-10-28T19:46:23.859Z,7.00
2022-10-28T19:51:14.107Z,7.20
2022-10-28T20:01:13.915Z,7.50
2022-10-28T20:06:14.523Z,7.00
2022-10-28T20:11:14.082Z,7.00
2022-10-28T20:16:13.366Z,7.10
2022-10-28T20:21:13.259Z,6.40
2022-10-28T20:26:16.010Z,6.40
2022-10-28T20:31:13.890Z,6.70
2022-10-28T20:36:16.130Z,7.10
2022-10-28T20:41:13.385Z,6.70
2022-10-28T20:46:19.837Z,6.80
2022-10-28T20:51:14.026Z,7.20
2022-10-28T20:56:12.897Z,6.50
2022-10-28T21:01:12.998Z,6.60
2022-10-28T21:11:13.702Z,7.00
2022-10-28T21:16:12.592Z,6.90
2022-10-28T21:21:15.948Z,6.50
2022-10-28T21:26:12.679Z,8.30
2022-10-28T21:31:13.515Z,7.60
2022-10-28T21:36:12.627Z,7.10
2022-10-28T21:41:17.872Z,7.80
2022-10-28T21:46:12.273Z,7.90
2022-10-28T21:51:14.684Z,7.10
2022-10-28T21:56:16.548Z,6.90
2022-10-28T22:01:13.266Z,8.20
2022-10-28T22:06:15.493Z,8.40
2022-10-28T22:11:12.071Z,9.00
2022-10-28T22:16:13.640Z,8.20
2022-10-28T22:21:12.072Z,8.50
2022-10-28T22:26:12.301Z,7.10
2022-10-28T22:31:14.343Z,7.80
2022-10-28T22:36:14.766Z,7.90
2022-10-28T22:41:13.431Z,8.00
2022-10-28T22:46:19.916Z,7.90
2022-10-28T22:51:12.860Z,8.40
2022-10-28T22:56:11.920Z,8.60
2022-10-28T23:01:11.755Z,7.30
2022-10-28T23:06:11.392Z,8.70
2022-10-28T23:11:11.334Z,9.00
2022-10-28T23:16:13.452Z,13.70
2022-10-28T23:21:15.765Z,8.10
2022-10-28T23:26:12.890Z,7.90
2022-10-28T23:31:12.442Z,9.00
2022-10-28T23:36:15.464Z,9.50
2022-10-28T23:41:10.989Z,8.50
2022-10-28T23:46:12.512Z,8.40
2022-10-28T23:51:10.992Z,9.20
2022-10-28T23:56:11.714Z,7.70
